BAW5KW TLPL-EGKK
Flight info
| Callsign | BAW5KW |
|---|---|
| Flight time | N/A |
| Altitude | 35000 |
| Route | FOF DCT 16N060W DCT CITRS/M085F350 DCT 24N055W/M085F370 27N053W 31N050W 39N040W 45N030W/M085F390 48N020W DCT BEDRA DCT NASBA DCT GAPLI/N0489F390 DCT SIDDI DCT DAWLY DCT ELRIP DCT OTMET |
| Aircraft | B772/H-SDE2E3FGHIJ5LORVWXY/LB1D1 |
Departure
| Time | 2026-05-05 02:08 |
|---|---|
| Airport | Hewanorra International Airport (TLPL) |
Arrival
| Time | N/A |
|---|---|
| Airport | London Gatwick Airport (EGKK) |
| Time | Latitude | Longitude | Altitude | Speed | Heading |
|---|---|---|---|---|---|
| 2026-05-05 01:04 | 13.73640 | -60.94855 | 36 ft | 0 kts | 359° |
| 2026-05-05 01:58 | 13.73635 | -60.94855 | 40 ft | 4 kts | 356° |
| 2026-05-05 01:58 | 13.73610 | -60.94850 | 39 ft | 4 kts | 335° |
| 2026-05-05 01:58 | 13.73589 | -60.94837 | 36 ft | 4 kts | 308° |
| 2026-05-05 01:58 | 13.73577 | -60.94814 | 35 ft | 4 kts | 285° |
| 2026-05-05 01:59 | 13.73573 | -60.94788 | 36 ft | 4 kts | 268° |
| 2026-05-05 01:59 | 13.73573 | -60.94781 | 36 ft | 0 kts | 266° |
| 2026-05-05 02:01 | 13.73571 | -60.94800 | 40 ft | 6 kts | 266° |
| 2026-05-05 02:02 | 13.73556 | -60.94848 | 40 ft | 7 kts | 229° |
| 2026-05-05 02:02 | 13.73526 | -60.94890 | 39 ft | 7 kts | 251° |
| 2026-05-05 02:02 | 13.73521 | -60.94948 | 39 ft | 10 kts | 267° |
| 2026-05-05 02:02 | 13.73520 | -60.95022 | 39 ft | 11 kts | 269° |
| 2026-05-05 02:03 | 13.73519 | -60.95101 | 39 ft | 11 kts | 270° |
| 2026-05-05 02:03 | 13.73506 | -60.95148 | 39 ft | 6 kts | 224° |
| 2026-05-05 02:03 | 13.73458 | -60.95155 | 37 ft | 9 kts | 180° |
| 2026-05-05 02:03 | 13.73374 | -60.95156 | 32 ft | 10 kts | 184° |
| 2026-05-05 02:04 | 13.73344 | -60.95213 | 32 ft | 10 kts | 270° |
| 2026-05-05 02:04 | 13.73344 | -60.95312 | 33 ft | 17 kts | 270° |
| 2026-05-05 02:04 | 13.73343 | -60.95458 | 33 ft | 22 kts | 269° |
| 2026-05-05 02:04 | 13.73342 | -60.95615 | 33 ft | 22 kts | 270° |
| 2026-05-05 02:05 | 13.73342 | -60.95770 | 34 ft | 22 kts | 270° |
| 2026-05-05 02:05 | 13.73342 | -60.95927 | 33 ft | 22 kts | 270° |
| 2026-05-05 02:05 | 13.73341 | -60.96084 | 32 ft | 22 kts | 269° |
| 2026-05-05 02:05 | 13.73339 | -60.96242 | 32 ft | 22 kts | 270° |
| 2026-05-05 02:06 | 13.73339 | -60.96398 | 32 ft | 20 kts | 270° |
| 2026-05-05 02:06 | 13.73358 | -60.96481 | 31 ft | 10 kts | 301° |
| 2026-05-05 02:06 | 13.73348 | -60.96525 | 31 ft | 5 kts | 209° |
| 2026-05-05 02:06 | 13.73328 | -60.96519 | 31 ft | 3 kts | 136° |
| 2026-05-05 02:07 | 13.73330 | -60.96495 | 31 ft | 3 kts | 73° |
| 2026-05-05 02:07 | 13.73337 | -60.96472 | 31 ft | 3 kts | 77° |
| 2026-05-05 02:07 | 13.73339 | -60.96363 | 32 ft | 37 kts | 89° |
| 2026-05-05 02:07 | 13.73341 | -60.95854 | 34 ft | 105 kts | 89° |
| 2026-05-05 02:08 | 13.73342 | -60.94889 | 35 ft | 162 kts | 89° |
| 2026-05-05 02:08 | 13.73364 | -60.93667 | 622 ft | 165 kts | 91° |
| 2026-05-05 02:08 | 13.73387 | -60.92498 | 1380 ft | 167 kts | 90° |
| 2026-05-05 02:08 | 13.73397 | -60.91221 | 1635 ft | 190 kts | 90° |
| 2026-05-05 02:09 | 13.73408 | -60.89800 | 1819 ft | 211 kts | 90° |
| 2026-05-05 02:09 | 13.73421 | -60.88211 | 2017 ft | 232 kts | 90° |
| 2026-05-05 02:09 | 13.73434 | -60.86490 | 2457 ft | 242 kts | 90° |
| 2026-05-05 02:09 | 13.73448 | -60.84740 | 3042 ft | 247 kts | 90° |
| 2026-05-05 02:10 | 13.73462 | -60.82938 | 3557 ft | 255 kts | 90° |
| 2026-05-05 02:10 | 13.73477 | -60.81113 | 4257 ft | 254 kts | 90° |
| 2026-05-05 02:10 | 13.73516 | -60.79294 | 4851 ft | 255 kts | 83° |
| 2026-05-05 02:10 | 13.74131 | -60.77563 | 5307 ft | 264 kts | 57° |
| 2026-05-05 02:11 | 13.75439 | -60.76241 | 5814 ft | 274 kts | 34° |
| 2026-05-05 02:11 | 13.77189 | -60.75378 | 6266 ft | 282 kts | 25° |
| 2026-05-05 02:11 | 13.79032 | -60.74628 | 6787 ft | 285 kts | 24° |
| 2026-05-05 02:11 | 13.80889 | -60.73897 | 7367 ft | 285 kts | 24° |
| 2026-05-05 02:12 | 13.82745 | -60.73170 | 7946 ft | 285 kts | 24° |
| 2026-05-05 02:12 | 13.86462 | -60.71700 | 8954 ft | 288 kts | 24° |
| 2026-05-05 02:12 | 13.88314 | -60.70960 | 9432 ft | 290 kts | 24° |
| 2026-05-05 02:13 | 13.90207 | -60.70201 | 9951 ft | 291 kts | 24° |
| 2026-05-05 02:13 | 13.92102 | -60.69437 | 10297 ft | 298 kts | 24° |
| 2026-05-05 02:13 | 13.94084 | -60.68634 | 10426 ft | 313 kts | 24° |
| 2026-05-05 02:13 | 13.96167 | -60.67787 | 10525 ft | 329 kts | 24° |
| 2026-05-05 02:14 | 13.98328 | -60.66908 | 10659 ft | 346 kts | 24° |
| 2026-05-05 02:14 | 14.00635 | -60.65969 | 10792 ft | 365 kts | 24° |
| 2026-05-05 02:14 | 14.03037 | -60.64992 | 11187 ft | 375 kts | 24° |
| 2026-05-05 02:14 | 14.05499 | -60.63991 | 11744 ft | 382 kts | 24° |
| 2026-05-05 02:15 | 14.07992 | -60.62978 | 12383 ft | 386 kts | 24° |
| 2026-05-05 02:15 | 14.10472 | -60.61970 | 13063 ft | 389 kts | 24° |
| 2026-05-05 02:15 | 14.13007 | -60.60939 | 13711 ft | 393 kts | 24° |
| 2026-05-05 02:15 | 14.15559 | -60.59900 | 14261 ft | 396 kts | 23° |
| 2026-05-05 02:16 | 14.18133 | -60.58850 | 14828 ft | 399 kts | 23° |
| 2026-05-05 02:16 | 14.20730 | -60.57792 | 15414 ft | 400 kts | 23° |
| 2026-05-05 02:16 | 14.23324 | -60.56735 | 15971 ft | 402 kts | 22° |
| 2026-05-05 02:16 | 14.25910 | -60.55681 | 16493 ft | 404 kts | 22° |
| 2026-05-05 02:17 | 14.28529 | -60.54612 | 17045 ft | 406 kts | 22° |
| 2026-05-05 02:17 | 14.31171 | -60.53534 | 17516 ft | 409 kts | 22° |
| 2026-05-05 02:17 | 14.33831 | -60.52448 | 18039 ft | 411 kts | 21° |
| 2026-05-05 02:17 | 14.36508 | -60.51354 | 18472 ft | 415 kts | 21° |
| 2026-05-05 02:18 | 14.39203 | -60.50253 | 18886 ft | 417 kts | 21° |
| 2026-05-05 02:18 | 14.41913 | -60.49146 | 19300 ft | 420 kts | 22° |
| 2026-05-05 02:18 | 14.44607 | -60.48045 | 19653 ft | 423 kts | 22° |
| 2026-05-05 02:18 | 14.47357 | -60.46920 | 20036 ft | 426 kts | 22° |
| 2026-05-05 02:19 | 14.50121 | -60.45790 | 20396 ft | 429 kts | 22° |
| 2026-05-05 02:19 | 14.52917 | -60.44646 | 20770 ft | 431 kts | 22° |
| 2026-05-05 02:19 | 14.55719 | -60.43499 | 21123 ft | 434 kts | 22° |
| 2026-05-05 02:19 | 14.58541 | -60.42344 | 21457 ft | 437 kts | 23° |
| 2026-05-05 02:20 | 14.61383 | -60.41180 | 21797 ft | 440 kts | 23° |
| 2026-05-05 02:20 | 14.64220 | -60.40018 | 22123 ft | 443 kts | 23° |
| 2026-05-05 02:20 | 14.67102 | -60.38837 | 22467 ft | 446 kts | 23° |
| 2026-05-05 02:20 | 14.70001 | -60.37650 | 22811 ft | 448 kts | 23° |
| 2026-05-05 02:21 | 14.72917 | -60.36454 | 23133 ft | 451 kts | 24° |
| 2026-05-05 02:21 | 14.75804 | -60.35271 | 23466 ft | 453 kts | 24° |
| 2026-05-05 02:21 | 14.78742 | -60.34066 | 23757 ft | 455 kts | 24° |
| 2026-05-05 02:21 | 14.81699 | -60.32853 | 24025 ft | 457 kts | 24° |
| 2026-05-05 02:22 | 14.84666 | -60.31636 | 24317 ft | 459 kts | 23° |
| 2026-05-05 02:22 | 14.87643 | -60.30414 | 24587 ft | 460 kts | 23° |
| 2026-05-05 02:22 | 14.90624 | -60.29190 | 24872 ft | 462 kts | 23° |
| 2026-05-05 02:22 | 14.93586 | -60.27974 | 25131 ft | 464 kts | 23° |
| 2026-05-05 02:23 | 14.96591 | -60.26739 | 25391 ft | 465 kts | 23° |
| 2026-05-05 02:23 | 14.99615 | -60.25497 | 25648 ft | 467 kts | 23° |
| 2026-05-05 02:23 | 15.02645 | -60.24251 | 25904 ft | 469 kts | 23° |
| 2026-05-05 02:23 | 15.05691 | -60.22998 | 26170 ft | 470 kts | 23° |
| 2026-05-05 02:24 | 15.08696 | -60.21763 | 26434 ft | 472 kts | 23° |
| 2026-05-05 02:24 | 15.11749 | -60.20506 | 26704 ft | 473 kts | 22° |
| 2026-05-05 02:24 | 15.14817 | -60.19244 | 26979 ft | 474 kts | 22° |
| 2026-05-05 02:24 | 15.17889 | -60.17979 | 27237 ft | 476 kts | 22° |
| 2026-05-05 02:25 | 15.20979 | -60.16707 | 27499 ft | 477 kts | 22° |
| 2026-05-05 02:25 | 15.24067 | -60.15434 | 27740 ft | 479 kts | 22° |
| 2026-05-05 02:25 | 15.27179 | -60.14151 | 27949 ft | 481 kts | 22° |
| 2026-05-05 02:25 | 15.30291 | -60.12868 | 28215 ft | 482 kts | 22° |
| 2026-05-05 02:26 | 15.33407 | -60.11584 | 28467 ft | 483 kts | 22° |
| 2026-05-05 02:26 | 15.36551 | -60.10287 | 28634 ft | 486 kts | 22° |
| 2026-05-05 02:26 | 15.39657 | -60.09005 | 28826 ft | 487 kts | 22° |
| 2026-05-05 02:26 | 15.42814 | -60.07702 | 29016 ft | 489 kts | 22° |
| 2026-05-05 02:27 | 15.45979 | -60.06395 | 29232 ft | 490 kts | 22° |
| 2026-05-05 02:27 | 15.49156 | -60.05083 | 29407 ft | 491 kts | 22° |
| 2026-05-05 02:27 | 15.52331 | -60.03771 | 29622 ft | 492 kts | 22° |
| 2026-05-05 02:27 | 15.55512 | -60.02456 | 29812 ft | 493 kts | 22° |
| 2026-05-05 02:28 | 15.58705 | -60.01136 | 29973 ft | 494 kts | 22° |
| 2026-05-05 02:28 | 15.61900 | -59.99815 | 30108 ft | 495 kts | 22° |
| 2026-05-05 02:28 | 15.65115 | -59.98485 | 30272 ft | 496 kts | 22° |
| 2026-05-05 02:28 | 15.68286 | -59.97172 | 30416 ft | 496 kts | 22° |